createdAt,value
2022-08-24T00:05:00.045Z,99988.97
2022-08-24T00:10:04.330Z,100000.81
2022-08-24T00:15:10.549Z,100011.94
2022-08-24T00:20:13.194Z,100023.09
2022-08-24T00:25:15.254Z,100023.94
2022-08-24T00:30:19.626Z,100029.00
2022-08-24T00:35:22.497Z,100022.19
2022-08-24T00:40:33.891Z,100021.25
2022-08-24T00:45:44.100Z,100023.75
2022-08-24T00:50:55.250Z,100028.78
2022-08-24T00:56:01.522Z,100033.06
2022-08-24T01:01:09.450Z,100036.47
2022-08-24T01:06:12.604Z,100036.47
2022-08-24T01:11:20.044Z,100043.16
2022-08-24T01:16:41.556Z,100042.31
2022-08-24T01:21:54.757Z,100041.59
2022-08-24T01:26:56.996Z,100037.34
2022-08-24T01:31:58.904Z,100035.75
2022-08-24T01:37:02.431Z,100028.09
2022-08-24T01:42:05.061Z,100038.06
2022-08-24T01:47:09.735Z,100034.59
2022-08-24T01:52:15.194Z,100043.16
2022-08-24T01:57:17.383Z,100038.03
2022-08-24T02:02:28.046Z,100034.66
2022-08-24T02:07:33.057Z,100040.50
2022-08-24T02:12:40.687Z,100028.00
2022-08-24T02:17:44.089Z,100028.78
2022-08-24T02:22:46.273Z,100040.72
2022-08-24T02:27:49.088Z,100037.34
2022-08-24T02:32:50.701Z,100045.06
2022-08-24T02:37:52.998Z,100056.97
2022-08-24T02:42:55.658Z,100049.41
2022-08-24T02:47:59.006Z,100045.16
2022-08-24T02:53:00.824Z,100045.50
2022-08-24T02:58:04.267Z,100040.59
2022-08-24T03:03:07.558Z,100034.69
2022-08-24T03:08:10.425Z,100038.09
2022-08-24T03:13:13.649Z,100040.59
2022-08-24T03:18:15.971Z,100052.31
2022-08-24T03:23:17.824Z,100054.75
2022-08-24T03:28:21.649Z,100048.84
2022-08-24T03:33:26.446Z,100053.09
2022-08-24T03:38:28.401Z,100058.22
2022-08-24T03:43:46.778Z,100042.94
2022-08-24T03:48:50.707Z,100060.00
2022-08-24T03:53:56.929Z,100061.69
2022-08-24T03:59:01.685Z,100054.97
2022-08-24T04:04:08.174Z,100056.63
2022-08-24T04:09:11.841Z,100055.91
2022-08-24T04:14:27.144Z,100066.88
2022-08-24T04:19:57.544Z,100051.50
2022-08-24T04:25:09.280Z,100062.56
2022-08-24T04:30:14.617Z,100064.22
2022-08-24T04:35:41.312Z,100064.97
2022-08-24T04:40:46.952Z,100074.22
2022-08-24T04:45:52.128Z,100076.69
2022-08-24T04:50:54.605Z,100080.66
2022-08-24T04:55:57.701Z,100080.50
2022-08-24T05:00:59.538Z,100080.16
2022-08-24T05:06:01.937Z,100066.84
2022-08-24T05:11:08.568Z,100064.78
2022-08-24T05:16:14.117Z,100073.69
2022-08-24T05:21:20.005Z,100073.31
2022-08-24T05:26:26.891Z,100058.75
2022-08-24T05:31:31.556Z,100063.75
2022-08-24T05:36:40.845Z,100063.88
2022-08-24T05:41:47.840Z,100060.34
2022-08-24T05:47:02.814Z,100059.44
2022-08-24T05:52:06.322Z,100059.94
2022-08-24T05:57:08.240Z,100062.94
2022-08-24T06:02:27.360Z,100059.41
2022-08-24T06:07:29.257Z,100057.34
2022-08-24T06:12:33.255Z,100051.94
2022-08-24T06:17:35.419Z,100061.31
2022-08-24T06:22:37.327Z,100067.63
2022-08-24T06:27:41.524Z,100064.63
2022-08-24T06:32:44.196Z,100060.09
2022-08-24T06:37:55.555Z,100069.41
2022-08-24T06:43:03.580Z,100065.50
2022-08-24T06:48:25.965Z,100059.75
2022-08-24T06:53:28.324Z,100052.66
2022-08-24T06:58:32.461Z,100070.97
2022-08-24T07:03:35.305Z,100060.22
2022-08-24T07:08:53.969Z,100077.69
2022-08-24T07:13:55.805Z,100066.75
2022-08-24T07:18:59.073Z,100068.41
2022-08-24T07:24:03.428Z,100072.69
2022-08-24T07:29:30.635Z,100069.41
2022-08-24T07:34:34.657Z,100070.75
2022-08-24T07:39:36.728Z,100077.19
2022-08-24T07:44:38.959Z,100071.03
2022-08-24T07:49:41.582Z,100061.38
2022-08-24T07:54:43.801Z,100052.47
2022-08-24T07:59:47.600Z,100064.97
2022-08-24T08:04:49.662Z,100069.75
2022-08-24T08:09:52.921Z,100077.19
2022-08-24T08:14:54.725Z,100082.69
2022-08-24T08:19:57.277Z,100078.50
2022-08-24T08:24:59.509Z,100084.88
2022-08-24T08:30:02.426Z,100083.03
2022-08-24T08:35:05.804Z,100078.38
2022-08-24T08:40:19.119Z,100085.00
2022-08-24T08:45:33.970Z,100077.13
2022-08-24T08:51:33.682Z,100075.50
2022-08-24T08:56:54.036Z,100072.09
2022-08-24T09:02:18.387Z,100073.34
2022-08-24T09:07:36.924Z,100074.28
2022-08-24T09:12:47.824Z,100082.03
2022-08-24T09:18:14.501Z,100093.22
2022-08-24T09:23:54.104Z,100082.38
2022-08-24T09:29:07.949Z,100079.16
2022-08-24T09:34:18.739Z,100078.16
2022-08-24T09:39:32.277Z,100074.91
2022-08-24T09:44:34.274Z,100074.47
2022-08-24T09:49:49.380Z,100080.41
2022-08-24T09:54:51.356Z,100072.59
2022-08-24T09:59:59.443Z,100065.38
2022-08-24T10:05:13.456Z,100051.34
2022-08-24T10:10:33.102Z,100034.69
2022-08-24T10:15:47.410Z,100038.09
2022-08-24T10:21:09.205Z,100038.09
2022-08-24T10:26:14.237Z,100037.38
2022-08-24T10:31:40.996Z,100030.84
2022-08-24T10:37:00.714Z,100030.63
2022-08-24T10:42:50.443Z,100037.75
2022-08-24T10:47:58.007Z,100030.97
2022-08-24T10:53:19.985Z,100024.44
2022-08-24T10:59:11.009Z,100024.75
2022-08-24T11:04:28.066Z,100019.28
2022-08-24T11:09:53.213Z,100020.25
2022-08-24T11:15:01.487Z,100030.50
2022-08-24T11:20:24.002Z,100031.63
2022-08-24T11:25:32.699Z,100028.06
2022-08-24T11:30:39.264Z,100025.19
2022-08-24T11:35:41.133Z,100030.19
2022-08-24T11:41:12.801Z,100022.91
2022-08-24T11:46:19.079Z,100024.66
2022-08-24T11:52:06.982Z,100008.34
2022-08-24T11:57:18.211Z,100011.50
2022-08-24T12:02:35.528Z,100009.00
2022-08-24T12:07:40.447Z,100025.38
2022-08-24T12:13:10.028Z,100013.31
2022-08-24T12:18:31.024Z,100004.00
2022-08-24T12:23:49.978Z,100009.69
2022-08-24T12:29:06.762Z,99996.38
2022-08-24T12:34:24.137Z,100000.44
2022-08-24T12:39:36.360Z,100001.34
2022-08-24T12:44:50.189Z,100002.44
2022-08-24T12:50:26.621Z,99997.75
2022-08-24T12:55:52.364Z,99988.41
2022-08-24T13:00:56.282Z,99981.16
2022-08-24T13:06:04.504Z,99974.25
2022-08-24T13:11:11.799Z,99979.41
2022-08-24T13:17:07.749Z,99973.25
2022-08-24T13:22:09.569Z,99973.59
2022-08-24T13:27:11.373Z,99971.25
2022-08-24T13:32:21.209Z,99965.66
2022-08-24T13:37:26.087Z,99958.56
2022-08-24T13:42:48.959Z,99962.69
2022-08-24T13:47:59.971Z,99962.75
2022-08-24T13:53:13.866Z,99962.66
2022-08-24T13:58:43.279Z,99960.97
2022-08-24T14:03:51.894Z,99956.91
2022-08-24T14:09:30.154Z,99961.34
2022-08-24T14:14:58.673Z,99957.03
2022-08-24T14:20:22.299Z,99963.72
2022-08-24T14:25:30.556Z,99948.78
2022-08-24T14:30:33.981Z,99958.47
2022-08-24T14:35:42.847Z,99950.97
2022-08-24T14:40:59.867Z,99954.25
2022-08-24T14:46:19.236Z,99958.59
2022-08-24T14:51:53.721Z,99954.94
2022-08-24T14:57:04.193Z,99957.09
2022-08-24T15:02:30.238Z,99947.94
2022-08-24T15:07:35.245Z,99938.25
2022-08-24T15:12:49.459Z,99930.84
2022-08-24T15:18:13.571Z,99934.88
2022-08-24T15:23:28.682Z,99935.00
2022-08-24T15:28:32.973Z,99929.84
2022-08-24T15:33:51.241Z,99938.53
2022-08-24T15:38:53.273Z,99930.75
2022-08-24T15:44:07.474Z,99932.13
2022-08-24T15:49:45.245Z,99933.22
2022-08-24T15:55:00.042Z,99931.16
2022-08-24T16:00:13.678Z,99930.94
2022-08-24T16:05:25.865Z,99934.63
2022-08-24T16:10:36.039Z,99938.25
2022-08-24T16:15:48.081Z,99937.78
2022-08-24T16:20:51.149Z,99935.47
2022-08-24T16:26:22.255Z,99918.63
2022-08-24T16:31:45.475Z,99913.63
2022-08-24T16:36:48.260Z,99915.41
2022-08-24T16:41:54.161Z,99916.75
2022-08-24T16:46:55.958Z,99928.72
2022-08-24T16:51:57.661Z,99936.72
2022-08-24T16:57:14.241Z,99940.13
2022-08-24T17:02:17.583Z,99942.78
2022-08-24T17:07:26.719Z,99945.53
2022-08-24T17:12:29.655Z,99948.16
2022-08-24T17:17:32.052Z,99941.50
2022-08-24T17:22:33.702Z,99947.81
2022-08-24T17:27:35.508Z,99947.19
2022-08-24T17:32:37.445Z,99948.44
2022-08-24T17:37:39.533Z,99946.91
2022-08-24T17:42:50.817Z,99952.53
2022-08-24T17:47:53.652Z,99957.31
2022-08-24T17:52:58.929Z,99944.13
2022-08-24T17:58:02.105Z,99955.56
2022-08-24T18:03:04.343Z,99969.06
2022-08-24T18:08:06.428Z,99973.59
2022-08-24T18:13:09.501Z,99980.72
2022-08-24T18:18:11.407Z,99999.25
2022-08-24T18:23:13.640Z,100004.97
2022-08-24T18:28:23.957Z,100010.13
2022-08-24T18:33:25.738Z,100010.41
2022-08-24T18:38:27.611Z,99992.47
2022-08-24T18:43:29.736Z,99998.16
2022-08-24T18:48:32.165Z,100008.78
2022-08-24T18:53:35.441Z,100016.34
2022-08-24T18:58:37.281Z,100025.25
2022-08-24T19:03:39.084Z,100022.97
2022-08-24T19:08:40.725Z,100026.56
2022-08-24T19:13:42.544Z,100027.59
2022-08-24T19:18:44.767Z,100021.94
2022-08-24T19:23:46.801Z,100023.91
2022-08-24T19:28:48.497Z,100028.94
2022-08-24T19:33:51.280Z,100012.47
2022-08-24T19:38:54.250Z,100022.47
2022-08-24T19:44:27.074Z,100020.94
2022-08-24T19:49:29.816Z,100028.03
2022-08-24T19:54:34.863Z,100015.38
2022-08-24T19:59:41.168Z,100010.25
2022-08-24T20:04:42.816Z,100012.16
2022-08-24T20:09:44.885Z,100022.09
2022-08-24T20:14:46.508Z,100020.53
2022-08-24T20:19:48.177Z,100013.97
2022-08-24T20:24:52.796Z,100026.88
2022-08-24T20:29:55.855Z,100024.56
2022-08-24T20:34:57.838Z,100020.19
2022-08-24T20:40:00.286Z,100022.81
2022-08-24T20:45:02.005Z,100016.00
2022-08-24T20:50:04.545Z,100003.16
2022-08-24T20:55:06.700Z,100011.47
2022-08-24T21:00:10.914Z,100003.81
2022-08-24T21:05:12.813Z,100008.13
2022-08-24T21:10:15.297Z,100003.13
2022-08-24T21:15:17.425Z,100005.72
2022-08-24T21:20:20.211Z,99996.31
2022-08-24T21:25:21.856Z,99997.56
2022-08-24T21:30:23.705Z,100009.47
2022-08-24T21:35:25.619Z,100010.28
2022-08-24T21:40:28.831Z,100013.72
2022-08-24T21:45:32.379Z,100013.72
2022-08-24T21:50:34.179Z,100008.69
2022-08-24T21:55:36.601Z,100004.47
2022-08-24T22:00:39.307Z,100002.84
2022-08-24T22:05:41.256Z,100002.00
2022-08-24T22:10:43.332Z,100003.94
2022-08-24T22:15:46.183Z,100006.44
2022-08-24T22:20:47.901Z,100007.38
2022-08-24T22:25:54.019Z,100010.13
2022-08-24T22:30:56.628Z,100009.28
2022-08-24T22:35:58.369Z,100003.59
2022-08-24T22:41:01.157Z,100002.28
2022-08-24T22:46:03.254Z,99994.13
2022-08-24T22:51:08.675Z,99998.53
2022-08-24T22:56:20.023Z,99995.25
2022-08-24T23:01:26.387Z,99994.94
2022-08-24T23:06:29.148Z,99986.41
2022-08-24T23:11:32.332Z,99976.22
2022-08-24T23:16:35.967Z,99981.44
2022-08-24T23:21:37.591Z,99990.94
2022-08-24T23:26:40.265Z,99978.94
2022-08-24T23:31:42.459Z,99970.41
2022-08-24T23:36:44.345Z,99968.00
2022-08-24T23:41:46.965Z,99962.09
2022-08-24T23:46:49.042Z,99958.66
2022-08-24T23:51:52.570Z,99961.81
2022-08-24T23:56:55.935Z,99960.78
